Time;durP1;ratioP1;P1;durP2;ratioP2;P2;SDS_P1;SDS_P2;PMS_P1;PMS_P2;Temp;Humidity;BMP_temperature;BMP_pressure;BME280_temperature;BME280_humidity;BME280_pressure;Samples;Min_cycle;Max_cycle;Signal;HPM_P1;HPM_P2
2021/07/05 00:00:30;;;;;;;5.55;3.80;;;;;;;19.54;61.19;99371.69;4841821;29;20090;-62
2021/07/05 00:02:56;;;;;;;5.82;3.33;;;;;;;19.49;61.33;99368.56;4841921;29;20072;-62
2021/07/05 00:05:22;;;;;;;8.30;3.50;;;;;;;19.43;61.60;99364.53;4842311;29;20482;-61
2021/07/05 00:07:48;;;;;;;6.30;4.00;;;;;;;19.37;61.51;99357.94;4841667;29;20552;-61
2021/07/05 00:10:17;;;;;;;7.78;3.30;;;;;;;19.34;61.90;99362.59;4841673;29;20061;-61
2021/07/05 00:12:45;;;;;;;6.30;3.35;;;;;;;19.29;61.86;99364.75;4841628;29;20057;-62
2021/07/05 00:15:13;;;;;;;6.93;3.33;;;;;;;19.23;62.13;99358.16;4842280;29;20041;-62
2021/07/05 00:17:39;;;;;;;6.18;2.78;;;;;;;19.20;61.92;99362.81;4841531;29;20532;-63
2021/07/05 00:20:07;;;;;;;8.05;3.53;;;;;;;19.15;62.21;99373.72;4840036;29;20046;-63
2021/07/05 00:22:33;;;;;;;6.95;3.38;;;;;;;19.10;62.02;99381.13;4841299;29;20078;-61
2021/07/05 00:24:58;;;;;;;5.47;3.13;;;;;;;19.03;62.09;99374.59;4841875;29;20046;-68
2021/07/05 00:27:24;;;;;;;7.63;3.38;;;;;;;18.99;62.64;99375.78;4841577;29;20056;-62
2021/07/05 00:29:50;;;;;;;5.93;3.15;;;;;;;18.95;62.84;99380.44;5290508;23;20161;-62
2021/07/05 00:32:15;;;;;;;7.35;3.42;;;;;;;18.93;62.99;99376.25;4800735;29;20050;-62
2021/07/05 00:34:41;;;;;;;6.40;3.25;;;;;;;18.89;63.26;99365.06;4799944;29;20050;-61
2021/07/05 00:37:06;;;;;;;6.90;3.50;;;;;;;18.84;63.14;99372.47;4783767;29;20090;-62
2021/07/05 00:42:28;;;;;;;6.82;3.22;;;;;;;18.74;63.34;99371.47;4862833;24;22104;-62
2021/07/05 00:44:54;;;;;;;4.32;3.05;;;;;;;18.68;63.80;99373.72;4818211;29;20046;-61
2021/07/05 00:47:19;;;;;;;4.13;3.28;;;;;;;18.63;63.93;99368.78;4803150;29;20135;-62
2021/07/05 00:49:45;;;;;;;8.60;3.25;;;;;;;18.57;64.01;99366.59;4820942;29;20093;-61
2021/07/05 00:52:11;;;;;;;8.32;3.60;;;;;;;18.50;64.26;99370.56;4835376;29;20097;-62
2021/07/05 00:54:37;;;;;;;6.90;3.20;;;;;;;18.42;64.58;99373.75;4834498;29;20046;-61
2021/07/05 00:57:03;;;;;;;6.72;3.22;;;;;;;18.34;64.90;99368.19;4830270;29;20081;-61
2021/07/05 00:59:28;;;;;;;7.72;3.75;;;;;;;18.29;65.41;99370.31;4829204;29;20042;-62
2021/07/05 01:01:54;;;;;;;7.50;3.75;;;;;;;18.24;65.79;99367.16;4833370;29;20117;-61
2021/07/05 01:04:20;;;;;;;11.00;4.30;;;;;;;18.19;65.95;99374.53;4835285;29;20057;-61
2021/07/05 01:06:46;;;;;;;9.25;4.22;;;;;;;18.15;66.41;99376.56;4833334;29;20126;-61
2021/07/05 01:09:11;;;;;;;8.05;4.32;;;;;;;18.11;66.68;99369.81;4835509;29;20413;-60
2021/07/05 01:11:37;;;;;;;12.40;3.97;;;;;;;18.09;66.60;99374.34;4834895;29;20076;-55
2021/07/05 01:14:03;;;;;;;12.80;4.95;;;;;;;18.06;66.46;99376.34;4833886;29;20042;-62
2021/07/05 01:16:29;;;;;;;15.20;4.22;;;;;;;17.99;66.66;99370.69;4818950;29;20049;-64
2021/07/05 01:18:54;;;;;;;9.10;3.95;;;;;;;18.03;66.32;99369.53;4816984;29;20046;-63
2021/07/05 01:21:21;;;;;;;10.77;3.90;;;;;;;18.01;65.98;99378.44;4839921;29;20497;-62
2021/07/05 01:23:46;;;;;;;7.90;3.85;;;;;;;18.00;65.97;99382.06;4833285;29;20141;-62
2021/07/05 01:26:12;;;;;;;8.88;3.60;;;;;;;17.97;66.14;99383.09;4822215;29;20137;-63
2021/07/05 01:28:38;;;;;;;8.15;4.32;;;;;;;17.94;66.48;99388.59;4832616;29;20037;-64
2021/07/05 01:31:03;;;;;;;10.23;3.70;;;;;;;17.92;66.38;99389.63;4835445;29;20078;-62
2021/07/05 01:33:29;;;;;;;7.20;3.78;;;;;;;17.88;66.43;99382.91;4834504;29;20046;-62
2021/07/05 01:35:55;;;;;;;8.15;3.53;;;;;;;17.87;66.38;99381.19;4833309;29;20045;-62
2021/07/05 01:38:22;;;;;;;7.10;3.70;;;;;;;17.85;66.76;99383.13;4834188;29;20085;-62
2021/07/05 01:40:55;;;;;;;11.52;3.95;;;;;;;17.82;67.23;99391.19;4832554;29;20053;-62
2021/07/05 01:43:22;;;;;;;12.02;3.85;;;;;;;17.79;67.36;99390.44;4832251;29;20094;-66
2021/07/05 01:45:48;;;;;;;7.22;3.30;;;;;;;17.78;67.49;99385.31;4824760;29;20057;-62
2021/07/05 01:48:14;;;;;;;6.97;4.00;;;;;;;17.77;67.73;99389.72;4837179;29;20087;-63
2021/07/05 01:50:40;;;;;;;9.13;3.72;;;;;;;17.74;67.84;99386.47;4828324;29;20120;-63
2021/07/05 01:53:05;;;;;;;10.05;3.65;;;;;;;17.71;67.76;99382.25;4834014;29;20048;-62
2021/07/05 01:55:33;;;;;;;8.35;3.78;;;;;;;17.69;67.84;99388.59;4834406;29;20505;-61
2021/07/05 01:58:02;;;;;;;10.68;3.67;;;;;;;17.69;67.66;99393.84;4832576;29;20836;-63
2021/07/05 02:00:28;;;;;;;10.32;3.83;;;;;;;17.71;66.97;99391.94;4834310;29;20544;-62
2021/07/05 02:02:54;;;;;;;10.25;3.50;;;;;;;17.68;67.29;99385.13;4831243;29;20057;-63
2021/07/05 02:05:20;;;;;;;6.63;3.35;;;;;;;17.68;67.28;99394.78;4827911;29;20083;-62
2021/07/05 02:07:47;;;;;;;8.27;4.00;;;;;;;17.67;67.42;99393.94;4833299;29;20030;-62
2021/07/05 02:10:20;;;;;;;5.78;3.60;;;;;;;17.68;67.32;99397.41;4839226;29;20045;-61
2021/07/05 02:12:46;;;;;;;7.53;3.10;;;;;;;17.66;67.18;99396.66;4821212;29;20073;-62
2021/07/05 02:15:13;;;;;;;8.35;3.38;;;;;;;17.67;67.48;99403.59;4833838;29;20857;-61
2021/07/05 02:17:40;;;;;;;11.18;3.65;;;;;;;17.67;67.47;99403.59;4833654;29;20041;-61
2021/07/05 02:20:15;;;;;;;12.55;3.83;;;;;;;17.66;67.48;99405.41;4833851;29;20046;-63
2021/07/05 02:22:41;;;;;;;10.05;3.47;;;;;;;17.66;67.36;99404.56;4832007;29;20525;-62
2021/07/05 02:25:11;;;;;;;13.50;4.00;;;;;;;17.68;67.53;99407.94;4833811;29;20052;-62
2021/07/05 02:27:38;;;;;;;7.90;3.47;;;;;;;17.68;67.39;99406.16;4829808;29;20027;-64
2021/07/05 02:30:05;;;;;;;11.48;3.72;;;;;;;17.69;67.49;99409.63;4833445;29;20050;-64
2021/07/05 02:32:31;;;;;;;10.05;3.35;;;;;;;17.67;67.81;99408.88;4817722;29;20421;-60
2021/07/05 02:34:57;;;;;;;12.60;4.15;;;;;;;17.68;67.55;99419.28;4831382;29;20505;-61
2021/07/05 02:37:23;;;;;;;9.30;3.10;;;;;;;17.69;67.30;99417.50;4824756;29;20046;-61
2021/07/05 02:39:49;;;;;;;8.50;3.20;;;;;;;17.70;66.86;99424.44;4843228;29;20045;-61
2021/07/05 02:42:15;;;;;;;8.82;3.20;;;;;;;17.68;66.69;99421.06;4837175;29;20054;-61
2021/07/05 02:44:40;;;;;;;4.90;3.42;;;;;;;17.69;66.70;99423.56;4836192;29;20037;-57
2021/07/05 02:47:06;;;;;;;14.95;3.60;;;;;;;17.73;66.75;99425.09;4836966;29;20077;-63
2021/07/05 02:52:27;;;;;;;7.30;3.17;;;;;;;17.77;66.95;99425.72;4908520;24;20058;-63
2021/07/05 02:54:52;;;;;;;8.50;3.25;;;;;;;17.82;65.05;99428.88;4824380;29;20042;-62
2021/07/05 02:57:30;;;;;;;8.77;3.10;;;;;;;17.81;64.93;99421.91;4824902;29;20046;-61
2021/07/05 03:00:09;;;;;;;9.05;3.58;;;;;;;17.86;64.72;99426.84;4824455;29;20058;-62
2021/07/05 03:02:35;;;;;;;8.27;3.83;;;;;;;17.87;64.53;99434.66;4821997;29;20089;-63
2021/07/05 03:05:01;;;;;;;7.13;3.33;;;;;;;17.89;64.53;99438.03;4824445;29;20074;-62
2021/07/05 03:07:27;;;;;;;6.45;3.17;;;;;;;17.92;64.53;99437.81;4824277;29;20993;-62
2021/07/05 03:09:53;;;;;;;8.98;3.30;;;;;;;17.94;64.54;99442.97;4824148;29;20054;-62
2021/07/05 03:12:19;;;;;;;5.82;3.50;;;;;;;17.95;64.06;99442.03;4819810;29;20034;-58
2021/07/05 03:14:45;;;;;;;13.00;4.70;;;;;;;17.95;64.09;99434.97;4819077;29;20442;-61
2021/07/05 03:17:11;;;;;;;8.38;3.92;;;;;;;17.95;64.34;99434.13;4820097;29;20050;-57
2021/07/05 03:19:36;;;;;;;7.22;3.00;;;;;;;17.97;64.27;99438.34;4819856;29;20410;-62
2021/07/05 03:22:03;;;;;;;10.13;4.25;;;;;;;18.00;63.51;99445.19;4820172;29;20053;-63
2021/07/05 03:24:28;;;;;;;6.68;2.92;;;;;;;18.03;63.48;99442.34;4819145;29;20058;-61
2021/07/05 03:26:54;;;;;;;7.50;3.08;;;;;;;18.04;63.59;99438.75;4803703;29;20079;-63
2021/07/05 03:29:20;;;;;;;6.97;3.22;;;;;;;18.06;62.99;99447.38;4819779;29;20192;-63
2021/07/05 03:31:45;;;;;;;5.47;2.70;;;;;;;18.08;63.02;99446.34;4820128;29;20046;-60
2021/07/05 03:34:11;;;;;;;6.78;2.75;;;;;;;18.08;62.39;99435.81;4820144;29;20038;-61
2021/07/05 03:36:37;;;;;;;10.95;2.90;;;;;;;18.14;62.57;99442.44;4820262;29;20872;-62
2021/07/05 03:39:04;;;;;;;11.75;3.00;;;;;;;18.15;62.55;99454.66;4820344;29;20452;-63
2021/07/05 03:41:30;;;;;;;4.75;2.97;;;;;;;18.18;62.94;99451.81;4818800;29;20042;-61
2021/07/05 03:43:56;;;;;;;10.48;3.35;;;;;;;18.17;62.99;99450.97;4819833;29;20046;-63
2021/07/05 03:46:22;;;;;;;8.98;3.22;;;;;;;18.19;63.30;99445.59;4819385;29;20578;-61
2021/07/05 03:48:47;;;;;;;9.07;3.38;;;;;;;18.21;63.39;99448.97;4819149;29;20045;-61
2021/07/05 03:51:13;;;;;;;8.25;4.07;;;;;;;18.23;63.67;99446.22;4803177;29;20165;-61
2021/07/05 03:53:39;;;;;;;8.23;4.45;;;;;;;18.24;63.80;99446.13;4819848;29;20047;-62
2021/07/05 03:56:06;;;;;;;10.75;3.20;;;;;;;18.25;63.31;99446.97;4820103;29;20242;-62
2021/07/05 03:58:31;;;;;;;5.70;2.97;;;;;;;18.28;63.40;99452.00;4819164;29;20046;-63
2021/07/05 04:01:00;;;;;;;7.13;3.10;;;;;;;18.31;63.08;99457.91;4819846;29;20459;-62
2021/07/05 04:03:25;;;;;;;6.88;2.90;;;;;;;18.31;63.43;99451.81;4818942;29;20565;-62
2021/07/05 04:05:52;;;;;;;5.75;3.08;;;;;;;18.34;63.24;99460.31;4819472;29;20052;-62
2021/07/05 04:08:20;;;;;;;13.20;3.65;;;;;;;18.39;63.13;99460.84;4819156;29;20037;-63
2021/07/05 04:10:46;;;;;;;10.63;3.40;;;;;;;18.43;63.13;99461.44;4819472;29;20050;-63
2021/07/05 04:13:11;;;;;;;4.40;2.67;;;;;;;18.48;62.57;99461.97;4819768;29;20046;-62
2021/07/05 04:15:38;;;;;;;11.63;3.20;;;;;;;18.52;62.71;99464.31;4795387;29;20149;-62
2021/07/05 04:18:06;;;;;;;7.43;3.00;;;;;;;18.54;63.02;99470.31;4819008;29;20062;-61
2021/07/05 04:20:32;;;;;;;4.90;3.00;;;;;;;18.59;62.50;99464.72;5291649;23;20118;-61
2021/07/05 04:22:58;;;;;;;4.88;2.53;;;;;;;18.64;62.45;99478.41;4835953;29;20052;-61
2021/07/05 04:25:24;;;;;;;6.03;3.13;;;;;;;18.68;62.40;99466.72;4836541;29;20054;-61
2021/07/05 04:27:50;;;;;;;8.02;2.78;;;;;;;18.78;61.52;99472.19;4837235;29;20833;-63
2021/07/05 04:30:17;;;;;;;11.95;3.42;;;;;;;18.82;61.42;99471.84;4836867;29;20049;-60
2021/07/05 04:32:43;;;;;;;6.57;2.83;;;;;;;18.85;60.99;99465.50;4837420;29;20049;-62
2021/07/05 04:35:12;;;;;;;7.22;3.65;;;;;;;18.88;61.21;99466.16;4837276;29;20516;-62
2021/07/05 04:37:38;;;;;;;6.13;2.90;;;;;;;18.94;60.74;99470.97;4839113;29;20528;-62
2021/07/05 04:40:09;;;;;;;10.25;3.13;;;;;;;18.99;60.06;99465.38;4841172;29;20041;-63
2021/07/05 04:42:35;;;;;;;6.75;2.80;;;;;;;19.07;58.90;99459.53;4837668;29;20077;-62
2021/07/05 04:45:01;;;;;;;8.07;4.10;;;;;;;19.17;59.28;99468.44;4821924;29;20126;-65
2021/07/05 04:47:27;;;;;;;4.57;2.40;;;;;;;19.24;58.83;99465.28;4841163;29;20044;-63
2021/07/05 04:49:52;;;;;;;14.02;5.97;;;;;;;19.30;58.43;99461.34;4841307;29;20053;-63
2021/07/05 04:52:18;;;;;;;8.35;4.10;;;;;;;19.36;57.49;99469.66;4821722;29;20098;-62
2021/07/05 04:54:44;;;;;;;5.70;1.92;;;;;;;19.42;55.99;99463.06;4836776;29;20073;-58
2021/07/05 04:57:11;;;;;;;5.43;2.05;;;;;;;19.49;55.74;99466.97;4821494;29;20145;-62
2021/07/05 04:59:37;;;;;;;9.18;3.53;;;;;;;19.56;56.63;99475.25;4835612;29;20586;-62
2021/07/05 05:02:03;;;;;;;7.50;3.13;;;;;;;19.59;57.12;99467.94;4820361;29;20057;-64
2021/07/05 05:04:29;;;;;;;7.90;3.42;;;;;;;19.63;57.16;99465.91;4840641;29;20141;-63
2021/07/05 05:06:55;;;;;;;9.68;2.22;;;;;;;19.74;54.68;99468.59;4840815;29;20124;-62
2021/07/05 05:09:24;;;;;;;4.30;2.28;;;;;;;19.82;54.00;99476.78;4841071;29;20130;-62
2021/07/05 05:11:50;;;;;;;4.97;2.30;;;;;;;19.91;54.14;99468.16;4833103;29;20514;-62
2021/07/05 05:14:17;;;;;;;7.35;2.03;;;;;;;19.95;54.67;99464.31;4820796;29;20054;-61
2021/07/05 05:16:46;;;;;;;7.00;2.75;;;;;;;20.01;54.16;99469.16;4836896;29;20038;-63
2021/07/05 05:19:11;;;;;;;6.57;2.53;;;;;;;20.10;53.25;99460.50;4833568;29;20034;-61
2021/07/05 05:21:37;;;;;;;8.18;3.05;;;;;;;20.16;53.71;99467.97;5284045;24;20038;-58
2021/07/05 05:24:03;;;;;;;8.20;2.63;;;;;;;20.23;53.27;99463.06;4821798;29;20054;-61
2021/07/05 05:26:29;;;;;;;5.65;2.28;;;;;;;20.28;52.51;99467.03;4827255;29;20058;-62
2021/07/05 05:28:55;;;;;;;8.27;3.30;;;;;;;20.38;52.02;99463.69;4821001;29;20356;-61
2021/07/05 05:31:22;;;;;;;5.82;2.88;;;;;;;20.45;51.12;99457.81;4817868;29;20053;-62
2021/07/05 05:33:47;;;;;;;7.00;2.47;;;;;;;20.57;50.46;99463.91;4810252;29;20042;-60
2021/07/05 05:36:13;;;;;;;8.13;2.65;;;;;;;20.67;51.05;99470.19;4806678;29;20053;-61
2021/07/05 05:38:40;;;;;;;5.10;2.55;;;;;;;20.75;51.06;99466.91;4815831;29;20422;-60
2021/07/05 05:44:10;;;;;;;9.48;3.78;;;;;;;20.93;50.74;99465.47;4778921;29;20124;-58
2021/07/05 05:46:36;;;;;;;4.63;2.40;;;;;;;21.01;50.09;99465.66;4781593;29;20050;-64
2021/07/05 05:49:02;;;;;;;8.15;2.22;;;;;;;21.13;49.27;99456.75;4785792;29;20074;-66
2021/07/05 05:51:32;;;;;;;3.25;1.90;;;;;;;21.24;48.38;99458.56;4783301;29;20051;-62
2021/07/05 05:53:59;;;;;;;5.63;3.03;;;;;;;21.36;47.80;99453.06;4783352;29;20051;-65
2021/07/05 05:56:28;;;;;;;6.75;2.80;;;;;;;21.47;47.54;99453.03;4781838;29;20043;-64
2021/07/05 05:58:59;;;;;;;13.10;2.83;;;;;;;21.55;48.17;99449.75;4781807;29;20694;-63
2021/07/05 06:04:06;;;;;;;8.95;2.22;;;;;;;21.76;46.94;99447.97;5149003;24;20066;-64
2021/07/05 06:06:38;;;;;;;4.20;2.20;;;;;;;21.87;45.54;99462.94;4823473;29;20042;-63
2021/07/05 06:09:04;;;;;;;7.70;2.58;;;;;;;21.98;45.58;99456.78;4826398;29;20523;-64
2021/07/05 06:11:30;;;;;;;4.82;2.13;;;;;;;22.08;45.18;99465.63;4827353;29;20097;-63
2021/07/05 06:13:55;;;;;;;11.52;2.65;;;;;;;22.17;45.70;99457.72;4832581;29;20134;-62
2021/07/05 06:16:21;;;;;;;6.07;2.28;;;;;;;22.25;44.39;99460.53;4833911;29;20050;-63
2021/07/05 06:18:47;;;;;;;6.47;1.80;;;;;;;22.34;43.22;99457.13;4829259;29;20050;-64
2021/07/05 06:21:12;;;;;;;6.63;2.30;;;;;;;22.44;44.09;99459.81;4825648;29;20176;-64
2021/07/05 06:23:38;;;;;;;5.03;2.35;;;;;;;22.56;42.99;99461.38;4821716;29;20054;-63
2021/07/05 06:26:04;;;;;;;7.72;3.40;;;;;;;22.69;43.48;99453.19;4817091;29;20069;-63
2021/07/05 06:28:33;;;;;;;8.15;2.70;;;;;;;22.83;43.39;99454.66;4820040;29;20042;-60
2021/07/05 06:31:01;;;;;;;9.32;3.25;;;;;;;22.96;42.14;99456.09;4811952;29;20046;-62
2021/07/05 06:33:28;;;;;;;6.22;1.90;;;;;;;23.09;41.87;99456.66;5291857;24;20029;-61
2021/07/05 06:35:54;;;;;;;8.98;2.40;;;;;;;23.23;42.01;99453.63;4835657;29;20049;-62
2021/07/05 06:38:20;;;;;;;4.22;2.15;;;;;;;23.40;42.98;99454.72;4840665;29;20466;-61
2021/07/05 06:40:47;;;;;;;4.40;2.22;;;;;;;23.66;42.90;99465.63;4831777;29;21014;-60
2021/07/05 06:43:14;;;;;;;5.65;2.75;;;;;;;24.03;42.82;99463.06;4835878;29;20053;-60
2021/07/05 06:45:40;;;;;;;26.88;5.00;;;;;;;24.64;41.16;99459.97;4837608;29;20045;-60
2021/07/05 06:48:06;;;;;;;87.05;14.88;;;;;;;25.36;40.80;99461.78;4838646;29;20559;-60
2021/07/05 06:50:32;;;;;;;161.07;20.30;;;;;;;26.31;38.82;99470.75;4838058;29;20046;-62
2021/07/05 06:52:58;;;;;;;16.30;3.30;;;;;;;27.39;36.38;99467.31;4838621;29;20048;-61
2021/07/05 06:55:24;;;;;;;101.82;12.77;;;;;;;28.31;34.23;99464.31;4837316;29;20159;-61
2021/07/05 06:57:50;;;;;;;38.15;6.68;;;;;;;29.21;33.03;99464.75;4837660;29;20045;-61
2021/07/05 07:00:19;;;;;;;12.07;6.28;;;;;;;30.20;31.00;99464.69;4837930;29;20096;-58
2021/07/05 07:02:45;;;;;;;8.27;4.10;;;;;;;31.15;29.38;99460.16;4837493;29;20056;-61
2021/07/05 07:05:13;;;;;;;12.77;4.22;;;;;;;32.11;28.81;99470.44;4839356;29;20042;-61
2021/07/05 07:07:40;;;;;;;13.95;6.90;;;;;;;33.04;27.89;99461.81;4838436;29;20156;-62
2021/07/05 07:10:07;;;;;;;7.63;3.92;;;;;;;33.88;25.79;99459.50;4838635;29;20128;-57
2021/07/05 07:12:36;;;;;;;193.63;79.68;;;;;;;34.69;25.42;99461.91;4839016;29;20058;-67
2021/07/05 07:15:07;;;;;;;39.30;21.17;;;;;;;35.45;24.51;99460.06;4838572;29;20061;-63
2021/07/05 07:17:38;;;;;;;10.07;4.22;;;;;;;36.16;23.04;99459.75;4838106;29;20615;-63
2021/07/05 07:20:07;;;;;;;15.90;5.20;;;;;;;36.71;22.47;99466.03;4839101;29;20399;-62
2021/07/05 07:22:34;;;;;;;11.73;6.15;;;;;;;37.27;22.02;99464.91;4837092;29;20045;-64
2021/07/05 07:24:59;;;;;;;15.02;5.55;;;;;;;37.90;21.68;99472.50;5300653;24;20114;-63
2021/07/05 07:27:25;;;;;;;12.95;6.20;;;;;;;38.47;20.84;99465.50;4818897;29;20909;-64
2021/07/05 07:29:51;;;;;;;5.30;3.45;;;;;;;38.88;19.80;99459.81;4836151;29;20697;-64
2021/07/05 07:32:16;;;;;;;8.55;5.38;;;;;;;39.35;19.75;99462.41;4837664;29;20486;-63
2021/07/05 07:34:44;;;;;;;14.73;6.80;;;;;;;39.59;19.68;99453.00;4831516;29;20596;-65
2021/07/05 07:37:10;;;;;;;5.30;3.63;;;;;;;39.97;19.23;99457.75;4842197;29;20045;-63
2021/07/05 07:39:41;;;;;;;5.68;3.40;;;;;;;40.41;18.53;99471.50;4850634;29;20041;-64
2021/07/05 07:42:07;;;;;;;5.78;3.65;;;;;;;40.94;18.04;99468.91;4843141;29;20049;-63
2021/07/05 07:44:34;;;;;;;17.40;9.23;;;;;;;41.23;17.65;99471.44;4845870;29;20092;-64
2021/07/05 07:47:00;;;;;;;13.87;10.03;;;;;;;41.56;17.35;99471.22;4822781;29;20424;-63
2021/07/05 07:49:27;;;;;;;17.88;12.70;;;;;;;41.69;17.51;99478.16;4837605;29;20038;-63
2021/07/05 07:51:53;;;;;;;10.50;4.93;;;;;;;41.79;17.26;99473.63;4839103;29;20076;-63
2021/07/05 07:54:20;;;;;;;21.15;14.27;;;;;;;42.04;17.41;99474.91;4837418;29;20049;-63
2021/07/05 07:56:45;;;;;;;63.63;13.90;;;;;;;42.17;17.33;99471.72;4838598;29;20101;-62
2021/07/05 07:59:12;;;;;;;24.35;11.45;;;;;;;42.30;16.89;99462.25;4837775;29;20417;-63
2021/07/05 08:01:37;;;;;;;11.00;6.55;;;;;;;42.44;16.69;99464.25;4838469;29;20037;-64
2021/07/05 08:04:03;;;;;;;6.55;4.20;;;;;;;42.55;15.87;99471.44;4840844;29;20049;-62
2021/07/05 08:06:29;;;;;;;28.27;6.88;;;;;;;42.42;16.41;99462.88;4851157;29;20073;-62
2021/07/05 08:08:55;;;;;;;3.55;3.17;;;;;;;42.32;15.44;99462.81;4842504;29;20116;-62
2021/07/05 08:11:21;;;;;;;11.90;4.47;;;;;;;42.45;15.46;99468.63;4824493;29;20426;-63
2021/07/05 08:13:48;;;;;;;9.18;3.38;;;;;;;42.14;15.79;99462.13;4860170;29;20135;-63
2021/07/05 08:16:14;;;;;;;7.25;4.50;;;;;;;42.47;15.65;99465.63;4860308;29;20045;-63
2021/07/05 08:18:39;;;;;;;11.00;5.75;;;;;;;42.82;15.56;99457.59;4860660;29;20052;-63
2021/07/05 08:21:05;;;;;;;9.52;4.10;;;;;;;43.05;15.01;99467.25;4845999;29;20046;-62
2021/07/05 08:23:31;;;;;;;9.23;3.95;;;;;;;43.15;15.16;99464.56;4841292;29;20117;-63
2021/07/05 08:25:58;;;;;;;8.30;6.05;;;;;;;43.26;15.21;99460.75;4840356;29;20632;-64
2021/07/05 08:28:24;;;;;;;5.65;3.72;;;;;;;43.44;15.26;99456.69;4836727;29;20524;-62
2021/07/05 08:30:55;;;;;;;28.25;10.45;;;;;;;43.61;15.56;99445.47;4837672;29;20496;-62
2021/07/05 08:33:21;;;;;;;8.50;5.40;;;;;;;43.67;15.21;99453.41;4836485;29;20549;-64
2021/07/05 08:35:47;;;;;;;11.13;5.55;;;;;;;43.73;14.70;99449.56;4838457;29;20473;-64
2021/07/05 08:38:13;;;;;;;9.27;4.60;;;;;;;43.82;14.46;99452.56;4837712;29;20042;-63
2021/07/05 08:40:39;;;;;;;27.30;18.45;;;;;;;44.09;14.24;99455.03;4837000;29;20144;-62
2021/07/05 08:43:05;;;;;;;23.50;12.88;;;;;;;44.34;14.08;99446.75;4839297;29;20132;-62
2021/07/05 08:45:31;;;;;;;14.30;4.10;;;;;;;43.98;13.95;99456.97;4839411;29;20141;-62
2021/07/05 08:47:57;;;;;;;19.45;11.85;;;;;;;44.17;14.31;99462.69;4837568;29;20597;-62
2021/07/05 08:50:24;;;;;;;21.20;11.45;;;;;;;44.38;14.15;99463.50;4825210;29;20049;-62
2021/07/05 08:52:52;;;;;;;34.63;21.50;;;;;;;44.27;14.71;99460.78;4837783;29;20049;-63
2021/07/05 08:55:25;;;;;;;19.85;7.97;;;;;;;44.29;14.64;99455.81;4835911;29;20430;-62
2021/07/05 08:57:51;;;;;;;8.73;5.72;;;;;;;44.38;14.38;99471.72;4837284;29;20109;-62
2021/07/05 09:00:22;;;;;;;14.07;5.57;;;;;;;44.60;14.12;99451.06;4837373;29;20046;-62
2021/07/05 09:02:48;;;;;;;6.90;3.83;;;;;;;44.93;13.39;99449.56;4837245;29;20050;-63
2021/07/05 09:08:10;;;;;;;10.40;5.50;;;;;;;45.06;13.55;99438.00;4798968;29;20054;-62
2021/07/05 09:10:40;;;;;;;15.43;5.18;;;;;;;44.93;13.92;99438.56;4813410;29;20070;-63
2021/07/05 09:13:07;;;;;;;14.82;5.72;;;;;;;45.11;14.17;99448.94;4802670;29;20573;-62
2021/07/05 09:15:40;;;;;;;10.20;7.35;;;;;;;45.25;14.31;99443.63;4804320;29;20098;-62
2021/07/05 09:18:33;;;;;;;57.15;14.15;;;;;;;45.34;13.96;99447.38;4782424;29;20582;-63
2021/07/05 09:21:17;;;;;;;17.75;7.00;;;;;;;45.46;13.63;99452.53;4770801;30;20460;-63
2021/07/05 09:24:04;;;;;;;13.73;8.13;;;;;;;45.76;13.00;99437.72;4766868;30;20078;-62
2021/07/05 09:26:38;;;;;;;6.97;4.90;;;;;;;45.85;12.76;99438.78;4782551;29;20047;-63
2021/07/05 09:29:21;;;;;;;11.07;6.47;;;;;;;45.80;12.97;99428.63;4789077;29;20047;-63
2021/07/05 09:32:08;;;;;;;6.70;5.07;;;;;;;45.87;13.26;99442.88;4788388;29;20138;-63
2021/07/05 09:34:42;;;;;;;10.25;5.35;;;;;;;46.02;13.23;99436.38;4781051;29;20078;-64
2021/07/05 09:37:30;;;;;;;11.15;6.75;;;;;;;45.71;13.30;99424.03;4782804;29;20043;-62
2021/07/05 09:40:05;;;;;;;6.57;5.68;;;;;;;45.73;12.73;99432.81;4784314;29;20134;-63
2021/07/05 09:42:40;;;;;;;5.30;4.80;;;;;;;45.61;12.64;99426.88;4768241;30;20483;-63
2021/07/05 09:45:27;;;;;;;8.15;5.20;;;;;;;45.73;12.75;99428.13;4768046;30;20134;-63
2021/07/05 09:48:23;;;;;;;9.63;6.85;;;;;;;45.67;12.68;99426.53;4784304;29;20491;-64
2021/07/05 09:51:01;;;;;;;4.10;3.80;;;;;;;45.73;12.97;99424.56;4786433;29;20071;-64
2021/07/05 09:53:43;;;;;;;9.80;4.50;;;;;;;45.46;12.44;99425.06;4786091;29;20055;-64
2021/07/05 09:56:28;;;;;;;5.68;4.70;;;;;;;45.50;12.68;99424.22;4769593;30;20058;-63
2021/07/05 09:59:00;;;;;;;10.48;6.00;;;;;;;45.60;13.31;99406.81;4769948;30;20043;-62
2021/07/05 10:01:39;;;;;;;6.20;4.28;;;;;;;45.99;12.53;99422.41;4786101;29;20525;-62
2021/07/05 10:04:07;;;;;;;10.65;6.70;;;;;;;45.85;12.14;99423.06;4785811;29;20044;-63
2021/07/05 10:06:46;;;;;;;5.78;5.18;;;;;;;45.17;12.70;99422.28;4785980;29;20155;-63
2021/07/05 10:09:13;;;;;;;5.88;5.28;;;;;;;45.22;13.09;99427.72;4770055;30;20050;-62
2021/07/05 10:11:39;;;;;;;;;;;;;;;45.21;13.37;99417.00;4769944;30;20451;-63
2021/07/05 10:14:20;;;;;;;7.23;4.40;;;;;;;45.43;12.83;99423.75;4769888;29;19932;-62
2021/07/05 10:16:47;;;;;;;4.85;4.25;;;;;;;45.60;12.52;99427.97;4767930;30;20056;-62
2021/07/05 10:19:14;;;;;;;5.75;4.22;;;;;;;45.50;12.83;99410.47;4768277;30;20048;-62
2021/07/05 10:21:40;;;;;;;;;;;;;;;45.44;12.98;99421.78;4768374;30;20504;-63
2021/07/05 10:24:06;;;;;;;4.78;4.38;;;;;;;45.61;12.85;99424.94;4766619;30;19925;-63
2021/07/05 10:26:34;;;;;;;7.00;4.43;;;;;;;45.63;12.90;99428.22;4767891;30;20050;-64
2021/07/05 10:29:00;;;;;;;4.95;3.72;;;;;;;45.63;12.43;99421.91;4776051;29;20534;-64
2021/07/05 10:31:26;;;;;;;5.95;5.50;;;;;;;45.75;12.33;99420.41;4783072;29;20043;-63
2021/07/05 10:33:57;;;;;;;6.43;4.57;;;;;;;45.95;12.02;99416.69;4788002;29;20074;-62
2021/07/05 10:39:16;;;;;;;7.95;5.60;;;;;;;46.18;12.22;99421.38;4815044;29;20485;-64
2021/07/05 10:41:41;;;;;;;5.35;4.63;;;;;;;46.11;11.89;99414.59;4805161;29;20046;-63
2021/07/05 10:44:12;;;;;;;9.52;5.32;;;;;;;46.12;11.94;99403.28;4821781;29;20418;-64
2021/07/05 10:46:53;;;;;;;10.23;8.15;;;;;;;46.31;12.55;99414.38;4821315;29;20042;-64
2021/07/05 10:49:28;;;;;;;7.32;4.78;;;;;;;46.53;12.03;99422.91;4821702;29;20053;-63
2021/07/05 10:51:56;;;;;;;8.80;5.03;;;;;;;46.18;12.65;99418.63;4821709;29;20414;-63
2021/07/05 10:54:40;;;;;;;7.53;5.28;;;;;;;46.38;12.45;99416.78;4821474;29;20058;-64
2021/07/05 10:57:06;;;;;;;7.20;5.10;;;;;;;46.56;12.04;99407.75;4820023;29;20058;-64
2021/07/05 10:59:31;;;;;;;6.57;5.05;;;;;;;46.80;12.28;99404.97;4804469;29;20124;-61
2021/07/05 11:01:57;;;;;;;7.18;6.18;;;;;;;46.89;12.61;99404.00;4819920;29;20427;-64
2021/07/05 11:04:31;;;;;;;7.97;5.05;;;;;;;46.82;12.08;99405.47;4820395;29;20048;-62
2021/07/05 11:07:16;;;;;;;5.28;4.78;;;;;;;46.51;11.46;99405.03;4822104;29;20065;-64
2021/07/05 11:09:57;;;;;;;6.38;5.00;;;;;;;46.69;12.30;99416.09;4819962;29;20049;-63
2021/07/05 11:12:33;;;;;;;6.07;5.32;;;;;;;46.78;12.31;99413.50;4819225;29;20140;-64
2021/07/05 11:15:00;;;;;;;9.52;5.05;;;;;;;46.39;12.05;99408.22;4819498;29;20144;-64
2021/07/05 11:17:27;;;;;;;7.82;4.55;;;;;;;45.44;11.97;99403.38;4820657;29;20088;-63
2021/07/05 11:20:19;;;;;;;5.78;4.10;;;;;;;45.67;12.44;99398.25;4819216;29;20567;-61
2021/07/05 11:22:56;;;;;;;4.25;3.92;;;;;;;44.71;12.02;99399.72;4817448;29;20058;-62
2021/07/05 11:25:26;;;;;;;6.05;4.03;;;;;;;44.20;12.86;99391.69;4820319;29;20046;-62
2021/07/05 11:28:03;;;;;;;4.88;4.00;;;;;;;44.20;13.23;99388.13;4819122;29;20430;-64
2021/07/05 11:30:41;;;;;;;5.50;4.15;;;;;;;44.72;13.10;99393.97;4820296;29;20046;-64
2021/07/05 11:33:07;;;;;;;7.13;4.70;;;;;;;45.30;13.14;99391.41;4819898;29;20043;-64
2021/07/05 11:35:41;;;;;;;8.60;6.05;;;;;;;45.67;13.24;99388.06;4820264;29;20532;-62
2021/07/05 11:38:09;;;;;;;5.97;4.57;;;;;;;45.72;12.48;99390.75;4819413;29;20058;-63
2021/07/05 11:40:47;;;;;;;8.15;5.07;;;;;;;45.69;11.89;99383.13;4820062;29;20077;-62
2021/07/05 11:43:15;;;;;;;23.25;8.82;;;;;;;45.83;12.10;99386.03;4819187;29;20478;-63
2021/07/05 11:45:51;;;;;;;8.02;4.65;;;;;;;45.82;12.04;99385.19;4819138;29;20192;-63
2021/07/05 11:48:39;;;;;;;16.00;7.25;;;;;;;45.66;11.90;99393.84;4823472;29;20050;-63
2021/07/05 11:51:29;;;;;;;38.15;11.80;;;;;;;45.49;12.00;99383.28;4823811;29;20058;-64
2021/07/05 11:53:59;;;;;;;16.02;5.68;;;;;;;45.38;12.24;99374.28;4823881;29;20058;-64